Archival Weather

Snohomish County (Paine Fld)

Everett, Washington (KPAE)

Report from: Monday, November 20, 2023 6:53 PM PST
Current time: Sunday, February 25, 2024 2:06 PM PST

Current weather – Weather history – Daily summaries
Weather forecast

Temperature7.8°C (46.0°F)
Dew point1.1°C (34.0°F)
Winds Calm
Visibility10 mi. (16.1 km)
Clouds Sky clear
Altimeter30.38 in.Hg (1029 mB)
Relative humidity63 %
Density altitude-1,300 ft. (-396 m)
Sea-level pressure102.9 kPa (1029 mB, 30.39 in.Hg)
Remarks Automated weather observing station with precipitation discriminator
Pressure falling more slowly
Flight conditions Visual Meteorological Conditions
Raw dataKPAE 210253Z 00000KT 10SM CLR 08/01 A3038 RMK AO2 SLP291 T00780011 56015
An error has occurred. This application may no longer respond until reloaded. Reload 🗙